sensor_id;sensor_type;location;lat;lon;timestamp;P1;durP1;ratioP1;P2;durP2;ratioP2
66145;SDS011;52948;60.040;30.320;2024-03-29T00:00:19;8.25;;;2.55;;
66145;SDS011;52948;60.040;30.320;2024-03-29T00:05:21;5.40;;;2.95;;
66145;SDS011;52948;60.040;30.320;2024-03-29T00:10:23;4.13;;;2.65;;
66145;SDS011;52948;60.040;30.320;2024-03-29T00:15:25;6.90;;;3.05;;
66145;SDS011;52948;60.040;30.320;2024-03-29T00:20:28;4.57;;;2.80;;
66145;SDS011;52948;60.040;30.320;2024-03-29T00:25:31;6.22;;;3.15;;
66145;SDS011;52948;60.040;30.320;2024-03-29T00:30:33;5.70;;;2.97;;
66145;SDS011;52948;60.040;30.320;2024-03-29T00:35:35;4.88;;;3.05;;
66145;SDS011;52948;60.040;30.320;2024-03-29T00:40:37;3.70;;;2.97;;
66145;SDS011;52948;60.040;30.320;2024-03-29T00:45:40;2.63;;;2.00;;
66145;SDS011;52948;60.040;30.320;2024-03-29T00:50:43;7.05;;;2.60;;
66145;SDS011;52948;60.040;30.320;2024-03-29T00:55:45;5.00;;;2.33;;
66145;SDS011;52948;60.040;30.320;2024-03-29T01:00:48;2.63;;;2.30;;
66145;SDS011;52948;60.040;30.320;2024-03-29T01:05:50;5.30;;;2.47;;
66145;SDS011;52948;60.040;30.320;2024-03-29T01:10:53;3.83;;;2.17;;
66145;SDS011;52948;60.040;30.320;2024-03-29T01:15:55;5.70;;;2.80;;
66145;SDS011;52948;60.040;30.320;2024-03-29T01:20:58;3.17;;;2.20;;
66145;SDS011;52948;60.040;30.320;2024-03-29T01:26:00;8.00;;;2.83;;
66145;SDS011;52948;60.040;30.320;2024-03-29T01:31:03;4.07;;;2.83;;
66145;SDS011;52948;60.040;30.320;2024-03-29T01:36:07;4.45;;;2.45;;
66145;SDS011;52948;60.040;30.320;2024-03-29T01:41:09;5.07;;;2.65;;
66145;SDS011;52948;60.040;30.320;2024-03-29T01:46:12;3.58;;;2.60;;
66145;SDS011;52948;60.040;30.320;2024-03-29T01:51:15;4.22;;;2.22;;
66145;SDS011;52948;60.040;30.320;2024-03-29T01:56:19;4.28;;;2.40;;
66145;SDS011;52948;60.040;30.320;2024-03-29T02:01:23;3.05;;;2.17;;
66145;SDS011;52948;60.040;30.320;2024-03-29T02:06:27;4.88;;;2.35;;
66145;SDS011;52948;60.040;30.320;2024-03-29T02:11:30;3.80;;;2.47;;
66145;SDS011;52948;60.040;30.320;2024-03-29T02:16:34;4.90;;;2.72;;
66145;SDS011;52948;60.040;30.320;2024-03-29T02:21:37;4.65;;;2.60;;
66145;SDS011;52948;60.040;30.320;2024-03-29T02:31:49;5.00;;;2.30;;
66145;SDS011;52948;60.040;30.320;2024-03-29T02:36:52;4.65;;;2.33;;
66145;SDS011;52948;60.040;30.320;2024-03-29T02:41:55;6.00;;;2.08;;
66145;SDS011;52948;60.040;30.320;2024-03-29T02:46:58;6.15;;;2.65;;
66145;SDS011;52948;60.040;30.320;2024-03-29T02:52:01;5.50;;;2.42;;
66145;SDS011;52948;60.040;30.320;2024-03-29T02:57:04;6.07;;;2.45;;
66145;SDS011;52948;60.040;30.320;2024-03-29T03:02:07;4.35;;;2.65;;
66145;SDS011;52948;60.040;30.320;2024-03-29T03:07:11;5.35;;;2.88;;
66145;SDS011;52948;60.040;30.320;2024-03-29T03:12:33;4.15;;;2.72;;
66145;SDS011;52948;60.040;30.320;2024-03-29T03:17:36;4.55;;;3.00;;
66145;SDS011;52948;60.040;30.320;2024-03-29T03:22:38;4.45;;;3.00;;
66145;SDS011;52948;60.040;30.320;2024-03-29T03:27:41;5.30;;;2.83;;
66145;SDS011;52948;60.040;30.320;2024-03-29T03:32:43;7.35;;;3.17;;
66145;SDS011;52948;60.040;30.320;2024-03-29T03:37:46;10.00;;;4.53;;
66145;SDS011;52948;60.040;30.320;2024-03-29T03:42:48;4.53;;;3.30;;
66145;SDS011;52948;60.040;30.320;2024-03-29T03:47:51;4.88;;;3.15;;
66145;SDS011;52948;60.040;30.320;2024-03-29T03:52:53;8.20;;;3.40;;
66145;SDS011;52948;60.040;30.320;2024-03-29T03:57:57;6.78;;;3.30;;
66145;SDS011;52948;60.040;30.320;2024-03-29T04:02:59;4.70;;;3.03;;
66145;SDS011;52948;60.040;30.320;2024-03-29T04:08:01;4.10;;;3.00;;
66145;SDS011;52948;60.040;30.320;2024-03-29T04:13:04;5.95;;;3.25;;
66145;SDS011;52948;60.040;30.320;2024-03-29T04:18:07;7.43;;;3.42;;
66145;SDS011;52948;60.040;30.320;2024-03-29T04:23:09;4.45;;;3.28;;
66145;SDS011;52948;60.040;30.320;2024-03-29T04:28:11;9.85;;;3.55;;
66145;SDS011;52948;60.040;30.320;2024-03-29T04:33:14;11.25;;;3.90;;
66145;SDS011;52948;60.040;30.320;2024-03-29T04:38:16;6.88;;;3.38;;
66145;SDS011;52948;60.040;30.320;2024-03-29T04:43:22;7.75;;;3.55;;
66145;SDS011;52948;60.040;30.320;2024-03-29T04:48:25;6.15;;;3.35;;
66145;SDS011;52948;60.040;30.320;2024-03-29T04:53:27;9.35;;;3.55;;
66145;SDS011;52948;60.040;30.320;2024-03-29T04:58:30;9.68;;;3.50;;
66145;SDS011;52948;60.040;30.320;2024-03-29T05:03:33;6.75;;;3.50;;
66145;SDS011;52948;60.040;30.320;2024-03-29T05:08:35;7.55;;;3.95;;
66145;SDS011;52948;60.040;30.320;2024-03-29T05:13:38;6.72;;;4.38;;
66145;SDS011;52948;60.040;30.320;2024-03-29T05:18:42;9.13;;;4.25;;
66145;SDS011;52948;60.040;30.320;2024-03-29T05:23:44;7.97;;;3.97;;
66145;SDS011;52948;60.040;30.320;2024-03-29T05:28:46;7.47;;;3.72;;
66145;SDS011;52948;60.040;30.320;2024-03-29T05:33:50;8.98;;;4.03;;
66145;SDS011;52948;60.040;30.320;2024-03-29T05:38:53;8.45;;;3.58;;
66145;SDS011;52948;60.040;30.320;2024-03-29T05:43:55;11.88;;;4.25;;
66145;SDS011;52948;60.040;30.320;2024-03-29T05:48:58;8.35;;;4.15;;
66145;SDS011;52948;60.040;30.320;2024-03-29T05:54:00;7.88;;;3.83;;
66145;SDS011;52948;60.040;30.320;2024-03-29T05:59:05;10.60;;;4.43;;
66145;SDS011;52948;60.040;30.320;2024-03-29T06:04:07;8.57;;;4.03;;
66145;SDS011;52948;60.040;30.320;2024-03-29T06:09:17;10.00;;;4.18;;
66145;SDS011;52948;60.040;30.320;2024-03-29T06:14:20;6.90;;;3.63;;
66145;SDS011;52948;60.040;30.320;2024-03-29T06:19:40;11.65;;;4.25;;
66145;SDS011;52948;60.040;30.320;2024-03-29T06:24:44;7.55;;;4.43;;
66145;SDS011;52948;60.040;30.320;2024-03-29T06:29:46;8.02;;;3.63;;
66145;SDS011;52948;60.040;30.320;2024-03-29T06:34:49;8.43;;;4.18;;
66145;SDS011;52948;60.040;30.320;2024-03-29T06:39:51;11.57;;;4.78;;
66145;SDS011;52948;60.040;30.320;2024-03-29T06:44:53;12.23;;;4.85;;
66145;SDS011;52948;60.040;30.320;2024-03-29T06:49:56;11.32;;;4.60;;
66145;SDS011;52948;60.040;30.320;2024-03-29T06:54:59;9.38;;;4.93;;
66145;SDS011;52948;60.040;30.320;2024-03-29T07:00:01;8.80;;;4.18;;
66145;SDS011;52948;60.040;30.320;2024-03-29T07:05:05;8.38;;;4.65;;
66145;SDS011;52948;60.040;30.320;2024-03-29T07:10:09;8.52;;;4.20;;
66145;SDS011;52948;60.040;30.320;2024-03-29T07:15:11;9.07;;;4.15;;
66145;SDS011;52948;60.040;30.320;2024-03-29T07:20:14;7.10;;;3.60;;
66145;SDS011;52948;60.040;30.320;2024-03-29T07:25:16;10.05;;;5.38;;
66145;SDS011;52948;60.040;30.320;2024-03-29T07:30:18;5.45;;;4.28;;
66145;SDS011;52948;60.040;30.320;2024-03-29T07:35:20;10.70;;;5.57;;
66145;SDS011;52948;60.040;30.320;2024-03-29T07:40:23;9.82;;;3.45;;
66145;SDS011;52948;60.040;30.320;2024-03-29T07:45:25;9.70;;;4.63;;
66145;SDS011;52948;60.040;30.320;2024-03-29T07:50:27;15.38;;;5.32;;
66145;SDS011;52948;60.040;30.320;2024-03-29T07:55:31;8.60;;;4.85;;
66145;SDS011;52948;60.040;30.320;2024-03-29T08:00:34;7.70;;;4.18;;
66145;SDS011;52948;60.040;30.320;2024-03-29T08:05:36;10.13;;;4.85;;
66145;SDS011;52948;60.040;30.320;2024-03-29T08:10:40;9.77;;;4.40;;
66145;SDS011;52948;60.040;30.320;2024-03-29T08:15:43;12.63;;;5.85;;
66145;SDS011;52948;60.040;30.320;2024-03-29T08:20:45;8.80;;;5.10;;
66145;SDS011;52948;60.040;30.320;2024-03-29T08:25:48;9.95;;;5.50;;
66145;SDS011;52948;60.040;30.320;2024-03-29T08:31:00;12.45;;;4.50;;
66145;SDS011;52948;60.040;30.320;2024-03-29T08:36:07;7.60;;;3.83;;
66145;SDS011;52948;60.040;30.320;2024-03-29T08:41:10;7.78;;;4.88;;
66145;SDS011;52948;60.040;30.320;2024-03-29T08:46:13;8.07;;;4.65;;
66145;SDS011;52948;60.040;30.320;2024-03-29T08:51:15;7.97;;;4.32;;
66145;SDS011;52948;60.040;30.320;2024-03-29T08:56:18;7.50;;;4.30;;
66145;SDS011;52948;60.040;30.320;2024-03-29T09:01:20;8.55;;;5.05;;
66145;SDS011;52948;60.040;30.320;2024-03-29T09:06:23;10.80;;;5.75;;
66145;SDS011;52948;60.040;30.320;2024-03-29T09:11:26;11.90;;;5.22;;
66145;SDS011;52948;60.040;30.320;2024-03-29T09:16:28;10.93;;;5.07;;
66145;SDS011;52948;60.040;30.320;2024-03-29T09:21:32;7.47;;;3.70;;
66145;SDS011;52948;60.040;30.320;2024-03-29T09:26:35;12.45;;;5.70;;
66145;SDS011;52948;60.040;30.320;2024-03-29T09:31:39;9.90;;;5.60;;
66145;SDS011;52948;60.040;30.320;2024-03-29T09:36:41;7.53;;;4.75;;
66145;SDS011;52948;60.040;30.320;2024-03-29T09:41:44;12.15;;;5.43;;
66145;SDS011;52948;60.040;30.320;2024-03-29T09:46:47;10.63;;;5.32;;
66145;SDS011;52948;60.040;30.320;2024-03-29T09:51:51;9.68;;;4.38;;
66145;SDS011;52948;60.040;30.320;2024-03-29T09:56:54;10.38;;;5.70;;
66145;SDS011;52948;60.040;30.320;2024-03-29T10:01:58;10.80;;;5.25;;
66145;SDS011;52948;60.040;30.320;2024-03-29T10:07:02;12.30;;;6.07;;
66145;SDS011;52948;60.040;30.320;2024-03-29T10:12:06;12.55;;;5.47;;
66145;SDS011;52948;60.040;30.320;2024-03-29T10:17:09;16.15;;;6.18;;
66145;SDS011;52948;60.040;30.320;2024-03-29T10:22:12;10.45;;;5.57;;
66145;SDS011;52948;60.040;30.320;2024-03-29T10:27:15;11.82;;;5.43;;
66145;SDS011;52948;60.040;30.320;2024-03-29T10:32:17;15.38;;;6.43;;
66145;SDS011;52948;60.040;30.320;2024-03-29T10:37:19;12.98;;;6.13;;
66145;SDS011;52948;60.040;30.320;2024-03-29T10:42:31;10.23;;;5.53;;
66145;SDS011;52948;60.040;30.320;2024-03-29T10:47:35;11.10;;;6.00;;
66145;SDS011;52948;60.040;30.320;2024-03-29T10:52:39;13.10;;;5.85;;
66145;SDS011;52948;60.040;30.320;2024-03-29T10:57:42;10.55;;;5.82;;
66145;SDS011;52948;60.040;30.320;2024-03-29T11:02:59;7.53;;;5.15;;
66145;SDS011;52948;60.040;30.320;2024-03-29T11:08:24;10.45;;;5.65;;
66145;SDS011;52948;60.040;30.320;2024-03-29T11:18:54;10.32;;;5.90;;
66145;SDS011;52948;60.040;30.320;2024-03-29T11:23:56;11.48;;;5.63;;
66145;SDS011;52948;60.040;30.320;2024-03-29T11:28:59;9.02;;;5.30;;
66145;SDS011;52948;60.040;30.320;2024-03-29T11:34:02;15.98;;;6.03;;
66145;SDS011;52948;60.040;30.320;2024-03-29T11:39:04;10.85;;;5.45;;
66145;SDS011;52948;60.040;30.320;2024-03-29T11:44:07;11.63;;;6.07;;
66145;SDS011;52948;60.040;30.320;2024-03-29T11:49:10;12.45;;;5.68;;
66145;SDS011;52948;60.040;30.320;2024-03-29T11:54:12;12.77;;;5.03;;
66145;SDS011;52948;60.040;30.320;2024-03-29T11:59:14;15.48;;;5.80;;
66145;SDS011;52948;60.040;30.320;2024-03-29T12:04:21;11.88;;;5.32;;
66145;SDS011;52948;60.040;30.320;2024-03-29T12:09:23;11.02;;;6.20;;
66145;SDS011;52948;60.040;30.320;2024-03-29T12:14:26;15.30;;;6.40;;
66145;SDS011;52948;60.040;30.320;2024-03-29T12:19:29;14.63;;;6.47;;
66145;SDS011;52948;60.040;30.320;2024-03-29T12:24:32;14.63;;;6.25;;
66145;SDS011;52948;60.040;30.320;2024-03-29T12:29:35;11.73;;;6.55;;
66145;SDS011;52948;60.040;30.320;2024-03-29T12:34:37;11.27;;;6.80;;
66145;SDS011;52948;60.040;30.320;2024-03-29T12:39:41;16.33;;;6.93;;
66145;SDS011;52948;60.040;30.320;2024-03-29T12:44:43;16.63;;;7.00;;
66145;SDS011;52948;60.040;30.320;2024-03-29T12:49:47;7.35;;;4.35;;
66145;SDS011;52948;60.040;30.320;2024-03-29T12:54:50;13.57;;;6.82;;
66145;SDS011;52948;60.040;30.320;2024-03-29T12:59:52;10.00;;;6.05;;
66145;SDS011;52948;60.040;30.320;2024-03-29T13:04:55;5.03;;;3.65;;
66145;SDS011;52948;60.040;30.320;2024-03-29T13:09:59;9.82;;;4.00;;
66145;SDS011;52948;60.040;30.320;2024-03-29T13:15:14;16.90;;;7.13;;
66145;SDS011;52948;60.040;30.320;2024-03-29T13:20:20;13.43;;;7.63;;
66145;SDS011;52948;60.040;30.320;2024-03-29T13:25:23;14.60;;;6.97;;
66145;SDS011;52948;60.040;30.320;2024-03-29T13:30:26;12.32;;;6.38;;
66145;SDS011;52948;60.040;30.320;2024-03-29T13:35:28;11.73;;;6.47;;
66145;SDS011;52948;60.040;30.320;2024-03-29T13:40:31;16.75;;;7.97;;
66145;SDS011;52948;60.040;30.320;2024-03-29T13:45:34;9.80;;;5.93;;
66145;SDS011;52948;60.040;30.320;2024-03-29T13:50:36;11.05;;;6.07;;
66145;SDS011;52948;60.040;30.320;2024-03-29T13:55:38;15.82;;;6.93;;
66145;SDS011;52948;60.040;30.320;2024-03-29T14:00:40;18.73;;;8.32;;
66145;SDS011;52948;60.040;30.320;2024-03-29T14:05:43;15.82;;;8.05;;
66145;SDS011;52948;60.040;30.320;2024-03-29T14:10:47;12.77;;;7.45;;
66145;SDS011;52948;60.040;30.320;2024-03-29T14:15:50;17.90;;;8.63;;
66145;SDS011;52948;60.040;30.320;2024-03-29T14:20:52;9.35;;;5.45;;
66145;SDS011;52948;60.040;30.320;2024-03-29T14:25:55;19.80;;;6.55;;
66145;SDS011;52948;60.040;30.320;2024-03-29T14:30:58;19.15;;;8.48;;
66145;SDS011;52948;60.040;30.320;2024-03-29T14:36:01;10.13;;;5.32;;
66145;SDS011;52948;60.040;30.320;2024-03-29T14:46:41;14.00;;;6.40;;
66145;SDS011;52948;60.040;30.320;2024-03-29T14:51:44;14.25;;;6.93;;
66145;SDS011;52948;60.040;30.320;2024-03-29T14:56:48;14.20;;;7.25;;
66145;SDS011;52948;60.040;30.320;2024-03-29T15:01:51;14.48;;;6.10;;
66145;SDS011;52948;60.040;30.320;2024-03-29T15:06:57;11.80;;;6.07;;
66145;SDS011;52948;60.040;30.320;2024-03-29T15:11:59;10.23;;;5.97;;
66145;SDS011;52948;60.040;30.320;2024-03-29T15:17:01;18.20;;;7.28;;
66145;SDS011;52948;60.040;30.320;2024-03-29T15:22:04;18.63;;;6.72;;
66145;SDS011;52948;60.040;30.320;2024-03-29T15:27:08;10.90;;;5.50;;
66145;SDS011;52948;60.040;30.320;2024-03-29T15:32:27;13.75;;;6.25;;
66145;SDS011;52948;60.040;30.320;2024-03-29T15:37:34;15.48;;;7.35;;
66145;SDS011;52948;60.040;30.320;2024-03-29T15:42:37;16.98;;;6.93;;
66145;SDS011;52948;60.040;30.320;2024-03-29T15:47:44;16.25;;;6.97;;
66145;SDS011;52948;60.040;30.320;2024-03-29T15:52:46;15.35;;;7.05;;
66145;SDS011;52948;60.040;30.320;2024-03-29T15:57:48;12.07;;;6.57;;
66145;SDS011;52948;60.040;30.320;2024-03-29T16:02:50;18.77;;;9.32;;
66145;SDS011;52948;60.040;30.320;2024-03-29T16:07:53;12.00;;;6.72;;
66145;SDS011;52948;60.040;30.320;2024-03-29T16:12:55;14.20;;;7.55;;
66145;SDS011;52948;60.040;30.320;2024-03-29T16:18:00;11.52;;;6.00;;
66145;SDS011;52948;60.040;30.320;2024-03-29T16:23:02;14.68;;;8.95;;
66145;SDS011;52948;60.040;30.320;2024-03-29T16:28:04;16.90;;;10.20;;
66145;SDS011;52948;60.040;30.320;2024-03-29T16:33:07;14.65;;;8.13;;
66145;SDS011;52948;60.040;30.320;2024-03-29T16:38:10;17.23;;;10.10;;
66145;SDS011;52948;60.040;30.320;2024-03-29T16:43:18;28.77;;;13.88;;
66145;SDS011;52948;60.040;30.320;2024-03-29T16:48:21;26.60;;;13.32;;
66145;SDS011;52948;60.040;30.320;2024-03-29T16:53:26;24.50;;;13.38;;
66145;SDS011;52948;60.040;30.320;2024-03-29T16:58:29;22.52;;;12.57;;
66145;SDS011;52948;60.040;30.320;2024-03-29T17:03:31;18.67;;;8.90;;
66145;SDS011;52948;60.040;30.320;2024-03-29T17:08:33;20.25;;;10.95;;
66145;SDS011;52948;60.040;30.320;2024-03-29T17:13:35;14.32;;;8.68;;
66145;SDS011;52948;60.040;30.320;2024-03-29T17:18:38;17.85;;;11.13;;
66145;SDS011;52948;60.040;30.320;2024-03-29T17:23:40;15.13;;;8.45;;
66145;SDS011;52948;60.040;30.320;2024-03-29T17:28:42;24.58;;;13.40;;
66145;SDS011;52948;60.040;30.320;2024-03-29T17:33:44;17.95;;;9.15;;
66145;SDS011;52948;60.040;30.320;2024-03-29T17:38:46;22.45;;;12.88;;
66145;SDS011;52948;60.040;30.320;2024-03-29T17:43:49;19.67;;;11.55;;
66145;SDS011;52948;60.040;30.320;2024-03-29T17:48:51;19.67;;;9.35;;
66145;SDS011;52948;60.040;30.320;2024-03-29T17:53:55;22.80;;;10.82;;
66145;SDS011;52948;60.040;30.320;2024-03-29T17:58:58;17.58;;;9.07;;
66145;SDS011;52948;60.040;30.320;2024-03-29T18:04:00;21.63;;;10.55;;
66145;SDS011;52948;60.040;30.320;2024-03-29T18:09:03;15.98;;;8.95;;
66145;SDS011;52948;60.040;30.320;2024-03-29T18:14:06;19.63;;;10.10;;
66145;SDS011;52948;60.040;30.320;2024-03-29T18:19:09;17.60;;;9.32;;
66145;SDS011;52948;60.040;30.320;2024-03-29T18:24:11;17.52;;;8.27;;
66145;SDS011;52948;60.040;30.320;2024-03-29T18:29:16;13.10;;;7.88;;
66145;SDS011;52948;60.040;30.320;2024-03-29T18:34:20;12.27;;;8.25;;
66145;SDS011;52948;60.040;30.320;2024-03-29T18:39:22;14.43;;;8.63;;
66145;SDS011;52948;60.040;30.320;2024-03-29T18:44:26;12.23;;;8.00;;
66145;SDS011;52948;60.040;30.320;2024-03-29T18:49:28;12.35;;;7.43;;
66145;SDS011;52948;60.040;30.320;2024-03-29T18:54:30;14.32;;;6.93;;
66145;SDS011;52948;60.040;30.320;2024-03-29T18:59:32;12.38;;;7.18;;
66145;SDS011;52948;60.040;30.320;2024-03-29T19:04:40;14.80;;;7.80;;
66145;SDS011;52948;60.040;30.320;2024-03-29T19:09:43;13.02;;;7.35;;
66145;SDS011;52948;60.040;30.320;2024-03-29T19:14:46;10.85;;;6.70;;
66145;SDS011;52948;60.040;30.320;2024-03-29T19:19:48;7.53;;;5.10;;
66145;SDS011;52948;60.040;30.320;2024-03-29T19:24:51;7.78;;;4.75;;
66145;SDS011;52948;60.040;30.320;2024-03-29T19:29:54;7.53;;;4.63;;
66145;SDS011;52948;60.040;30.320;2024-03-29T19:34:56;5.55;;;3.95;;
66145;SDS011;52948;60.040;30.320;2024-03-29T19:39:58;5.43;;;3.72;;
66145;SDS011;52948;60.040;30.320;2024-03-29T19:45:01;4.63;;;3.00;;
66145;SDS011;52948;60.040;30.320;2024-03-29T19:50:04;5.05;;;2.97;;
66145;SDS011;52948;60.040;30.320;2024-03-29T19:55:07;4.18;;;2.78;;
66145;SDS011;52948;60.040;30.320;2024-03-29T20:00:10;3.42;;;2.28;;
66145;SDS011;52948;60.040;30.320;2024-03-29T20:05:13;3.33;;;2.47;;
66145;SDS011;52948;60.040;30.320;2024-03-29T20:10:15;2.47;;;2.28;;
66145;SDS011;52948;60.040;30.320;2024-03-29T20:15:18;3.53;;;2.22;;
66145;SDS011;52948;60.040;30.320;2024-03-29T20:20:20;2.53;;;1.73;;
66145;SDS011;52948;60.040;30.320;2024-03-29T20:25:22;2.55;;;1.70;;
66145;SDS011;52948;60.040;30.320;2024-03-29T20:30:24;3.40;;;1.85;;
66145;SDS011;52948;60.040;30.320;2024-03-29T20:35:27;2.42;;;1.40;;
66145;SDS011;52948;60.040;30.320;2024-03-29T20:40:29;1.95;;;1.35;;
66145;SDS011;52948;60.040;30.320;2024-03-29T20:45:31;2.30;;;1.50;;
66145;SDS011;52948;60.040;30.320;2024-03-29T20:50:35;1.92;;;1.38;;
66145;SDS011;52948;60.040;30.320;2024-03-29T20:55:37;1.83;;;1.33;;
66145;SDS011;52948;60.040;30.320;2024-03-29T21:00:41;3.70;;;1.52;;
66145;SDS011;52948;60.040;30.320;2024-03-29T21:05:43;1.90;;;1.23;;
66145;SDS011;52948;60.040;30.320;2024-03-29T21:10:46;1.67;;;1.35;;
66145;SDS011;52948;60.040;30.320;2024-03-29T21:15:48;1.33;;;0.98;;
66145;SDS011;52948;60.040;30.320;2024-03-29T21:20:50;1.33;;;1.17;;
66145;SDS011;52948;60.040;30.320;2024-03-29T21:25:52;1.10;;;1.00;;
66145;SDS011;52948;60.040;30.320;2024-03-29T21:30:54;1.75;;;1.58;;
66145;SDS011;52948;60.040;30.320;2024-03-29T21:36:00;2.35;;;1.30;;
66145;SDS011;52948;60.040;30.320;2024-03-29T21:41:02;1.92;;;1.30;;
66145;SDS011;52948;60.040;30.320;2024-03-29T21:46:05;1.60;;;1.10;;
66145;SDS011;52948;60.040;30.320;2024-03-29T21:51:08;1.20;;;1.10;;
66145;SDS011;52948;60.040;30.320;2024-03-29T21:56:11;1.60;;;1.35;;
66145;SDS011;52948;60.040;30.320;2024-03-29T22:01:14;1.45;;;1.00;;
66145;SDS011;52948;60.040;30.320;2024-03-29T22:06:21;1.75;;;1.40;;
66145;SDS011;52948;60.040;30.320;2024-03-29T22:11:23;1.35;;;1.17;;
66145;SDS011;52948;60.040;30.320;2024-03-29T22:16:26;2.80;;;1.30;;
66145;SDS011;52948;60.040;30.320;2024-03-29T22:21:29;1.77;;;1.30;;
66145;SDS011;52948;60.040;30.320;2024-03-29T22:26:32;1.77;;;1.40;;
66145;SDS011;52948;60.040;30.320;2024-03-29T22:31:37;1.73;;;1.30;;
66145;SDS011;52948;60.040;30.320;2024-03-29T22:36:41;2.60;;;1.55;;
66145;SDS011;52948;60.040;30.320;2024-03-29T22:41:46;1.77;;;1.25;;
66145;SDS011;52948;60.040;30.320;2024-03-29T22:46:50;1.90;;;1.40;;
66145;SDS011;52948;60.040;30.320;2024-03-29T22:51:55;1.80;;;1.42;;
66145;SDS011;52948;60.040;30.320;2024-03-29T22:56:58;1.77;;;1.42;;
66145;SDS011;52948;60.040;30.320;2024-03-29T23:02:01;0.98;;;0.95;;
66145;SDS011;52948;60.040;30.320;2024-03-29T23:07:04;1.48;;;1.30;;
66145;SDS011;52948;60.040;30.320;2024-03-29T23:12:10;1.50;;;1.27;;
66145;SDS011;52948;60.040;30.320;2024-03-29T23:17:13;1.70;;;1.42;;
66145;SDS011;52948;60.040;30.320;2024-03-29T23:22:17;1.50;;;1.20;;
66145;SDS011;52948;60.040;30.320;2024-03-29T23:27:19;1.75;;;0.90;;
66145;SDS011;52948;60.040;30.320;2024-03-29T23:32:21;2.25;;;1.13;;
66145;SDS011;52948;60.040;30.320;2024-03-29T23:37:24;1.20;;;1.10;;
66145;SDS011;52948;60.040;30.320;2024-03-29T23:42:31;1.47;;;1.20;;
66145;SDS011;52948;60.040;30.320;2024-03-29T23:47:34;1.05;;;0.70;;
66145;SDS011;52948;60.040;30.320;2024-03-29T23:52:36;2.30;;;1.05;;
66145;SDS011;52948;60.040;30.320;2024-03-29T23:57:39;1.10;;;0.93;;
